createdAt,value
2023-04-08T00:01:07.129Z,21.02
2023-04-08T00:03:37.393Z,26.40
2023-04-08T00:06:08.405Z,21.75
2023-04-08T00:08:35.608Z,24.30
2023-04-08T00:11:04.004Z,29.02
2023-04-08T00:13:32.526Z,24.50
2023-04-08T00:16:01.410Z,23.75
2023-04-08T00:18:29.648Z,23.88
2023-04-08T00:20:57.692Z,23.98
2023-04-08T00:23:26.209Z,23.67
2023-04-08T00:25:54.549Z,23.67
2023-04-08T00:28:22.991Z,25.30
2023-04-08T00:30:53.422Z,24.73
2023-04-08T00:33:25.987Z,26.77
2023-04-08T00:35:56.101Z,25.40
2023-04-08T00:38:26.303Z,25.77
2023-04-08T00:40:56.697Z,27.08
2023-04-08T00:43:27.228Z,29.30
2023-04-08T00:45:57.600Z,27.33
2023-04-08T00:48:27.806Z,29.88
2023-04-08T00:50:59.261Z,34.92
2023-04-08T00:53:32.710Z,31.63
2023-04-08T00:56:02.957Z,31.52
2023-04-08T00:58:33.283Z,34.45
2023-04-08T01:01:31.970Z,35.72
2023-04-08T01:05:06.759Z,36.90
2023-04-08T01:07:49.829Z,37.47
2023-04-08T01:10:38.497Z,39.72
2023-04-08T01:13:17.571Z,41.17
2023-04-08T01:15:49.951Z,43.60
2023-04-08T01:18:24.199Z,41.80
2023-04-08T01:20:56.641Z,45.28
2023-04-08T01:24:02.343Z,47.42
2023-04-08T01:26:33.779Z,44.92
2023-04-08T01:29:08.013Z,44.67
2023-04-08T01:31:43.031Z,42.08
2023-04-08T01:34:18.951Z,46.55
2023-04-08T01:36:52.388Z,52.72
2023-04-08T01:39:22.695Z,44.17
2023-04-08T01:41:56.495Z,48.85
2023-04-08T01:44:27.337Z,54.13
2023-04-08T01:46:58.622Z,57.72
2023-04-08T01:49:31.612Z,52.08
2023-04-08T01:52:02.129Z,60.55
2023-04-08T01:54:30.328Z,60.17
2023-04-08T01:57:09.037Z,56.95
2023-04-08T02:02:16.271Z,54.05
2023-04-08T02:04:47.834Z,53.80
2023-04-08T02:07:19.454Z,60.35
2023-04-08T02:09:50.253Z,63.50
2023-04-08T02:12:18.863Z,61.13
2023-04-08T02:14:49.617Z,59.78
2023-04-08T02:17:45.740Z,60.45
2023-04-08T02:21:09.487Z,60.95
2023-04-08T02:23:44.863Z,61.88
2023-04-08T02:26:19.599Z,65.55
2023-04-08T02:28:53.162Z,67.95
2023-04-08T02:31:27.325Z,64.13
2023-04-08T02:33:59.425Z,67.78
2023-04-08T02:36:34.371Z,67.70
2023-04-08T02:39:05.371Z,68.55
2023-04-08T02:41:35.585Z,70.13
2023-04-08T02:44:05.931Z,76.03
2023-04-08T02:46:36.332Z,73.28
2023-04-08T02:49:06.510Z,68.65
2023-04-08T02:51:36.834Z,64.50
2023-04-08T02:54:07.070Z,70.70
2023-04-08T02:56:37.334Z,71.22
2023-04-08T02:59:07.643Z,66.95
2023-04-08T03:01:36.162Z,75.15
2023-04-08T03:04:04.744Z,67.00
2023-04-08T03:06:33.020Z,74.55
2023-04-08T03:09:01.444Z,77.47
2023-04-08T03:11:29.636Z,71.03
2023-04-08T03:13:58.427Z,67.13
2023-04-08T03:16:26.971Z,81.45
2023-04-08T03:18:54.926Z,73.60
2023-04-08T03:21:23.445Z,76.50
2023-04-08T03:23:51.698Z,72.40
2023-04-08T03:26:20.233Z,67.05
2023-04-08T03:28:48.990Z,76.18
2023-04-08T03:31:17.045Z,80.13
2023-04-08T03:33:45.756Z,68.85
2023-04-08T03:36:14.069Z,71.88
2023-04-08T03:38:42.553Z,72.32
2023-04-08T03:41:11.059Z,68.90
2023-04-08T03:43:39.137Z,70.43
2023-04-08T03:46:07.760Z,81.05
2023-04-08T03:48:36.032Z,74.47
2023-04-08T03:51:04.534Z,77.07
2023-04-08T03:53:32.906Z,79.95
2023-04-08T03:56:03.030Z,74.35
2023-04-08T03:58:32.859Z,72.45
2023-04-08T04:01:01.547Z,81.78
2023-04-08T04:03:29.581Z,68.47
2023-04-08T04:05:57.965Z,81.00
2023-04-08T04:08:26.414Z,76.70
2023-04-08T04:10:54.887Z,84.88
2023-04-08T04:13:23.406Z,80.60
2023-04-08T04:15:51.705Z,88.68
2023-04-08T04:18:22.058Z,89.88
2023-04-08T04:20:52.257Z,79.18
2023-04-08T04:23:24.589Z,85.00
2023-04-08T04:25:54.774Z,84.32
2023-04-08T04:28:25.044Z,85.90
2023-04-08T04:30:56.589Z,83.82
2023-04-08T04:33:27.453Z,85.80
2023-04-08T04:35:57.858Z,90.20
2023-04-08T04:38:28.316Z,89.60
2023-04-08T04:40:59.178Z,93.38
2023-04-08T04:43:29.412Z,82.43
2023-04-08T04:45:59.910Z,85.28
2023-04-08T04:48:30.187Z,80.22
2023-04-08T04:51:03.495Z,91.38
2023-04-08T04:53:33.979Z,88.85
2023-04-08T04:56:02.404Z,93.07
2023-04-08T04:58:31.012Z,93.45
2023-04-08T05:00:59.193Z,87.93
2023-04-08T05:03:27.418Z,90.20
2023-04-08T05:05:55.855Z,95.55
2023-04-08T05:08:25.860Z,91.97
2023-04-08T05:10:56.306Z,90.68
2023-04-08T05:13:24.130Z,96.22
2023-04-08T05:15:52.581Z,96.63
2023-04-08T05:18:22.993Z,100.70
2023-04-08T05:20:53.128Z,101.63
2023-04-08T05:23:23.449Z,86.38
2023-04-08T05:25:53.707Z,99.28
2023-04-08T05:28:24.422Z,86.07
2023-04-08T05:30:54.827Z,97.40
2023-04-08T05:33:26.747Z,94.05
2023-04-08T05:35:57.092Z,92.10
2023-04-08T05:38:27.287Z,93.75
2023-04-08T05:40:57.640Z,93.63
2023-04-08T05:43:27.793Z,86.85
2023-04-08T05:45:57.916Z,86.25
2023-04-08T05:48:28.028Z,96.88
2023-04-08T05:50:58.151Z,83.10
2023-04-08T05:53:28.562Z,85.47
2023-04-08T05:55:58.886Z,87.40
2023-04-08T05:58:29.054Z,87.03
2023-04-08T06:00:59.221Z,89.88
2023-04-08T06:03:31.361Z,91.55
2023-04-08T06:06:01.596Z,91.80
2023-04-08T06:08:32.220Z,94.95
2023-04-08T06:11:04.307Z,90.03
2023-04-08T06:13:34.592Z,96.43
2023-04-08T06:16:14.547Z,92.35
2023-04-08T06:18:44.783Z,87.95
2023-04-08T06:21:15.226Z,87.03
2023-04-08T06:23:45.521Z,87.28
2023-04-08T06:26:16.604Z,98.85
2023-04-08T06:28:46.816Z,89.30
2023-04-08T06:31:17.017Z,82.35
2023-04-08T06:33:47.413Z,85.10
2023-04-08T06:36:17.599Z,83.05
2023-04-08T06:38:47.919Z,91.40
2023-04-08T06:41:18.159Z,84.65
2023-04-08T06:43:48.405Z,84.03
2023-04-08T06:46:18.552Z,91.55
2023-04-08T06:48:49.110Z,86.65
2023-04-08T06:51:19.577Z,89.63
2023-04-08T06:53:49.753Z,87.28
2023-04-08T06:56:21.598Z,93.88
2023-04-08T06:58:52.583Z,93.78
2023-04-08T07:01:23.038Z,93.03
2023-04-08T07:03:53.354Z,90.30
2023-04-08T07:06:23.847Z,92.90
2023-04-08T07:08:52.390Z,88.25
2023-04-08T07:11:21.242Z,90.88
2023-04-08T07:13:48.856Z,84.82
2023-04-08T07:16:17.395Z,80.50
2023-04-08T07:18:46.739Z,76.22
2023-04-08T07:21:14.405Z,81.85
2023-04-08T07:23:42.577Z,76.43
2023-04-08T07:26:11.038Z,73.05
2023-04-08T07:28:39.382Z,72.00
2023-04-08T07:31:19.266Z,69.50
2023-04-08T07:33:49.544Z,72.03
2023-04-08T07:36:19.700Z,77.25
2023-04-08T07:38:50.143Z,66.10
2023-04-08T07:41:21.415Z,71.70
2023-04-08T07:43:51.539Z,69.28
2023-04-08T07:46:21.861Z,70.82
2023-04-08T07:48:52.354Z,67.63
2023-04-08T07:51:22.695Z,66.13
2023-04-08T07:53:52.825Z,60.80
2023-04-08T07:56:23.067Z,68.75
2023-04-08T07:58:54.449Z,62.90
2023-04-08T08:01:24.984Z,61.10
2023-04-08T08:03:54.034Z,66.45
2023-04-08T08:06:22.342Z,62.72
2023-04-08T08:08:50.035Z,60.70
2023-04-08T08:11:18.494Z,61.63
2023-04-08T08:13:47.060Z,65.13
2023-04-08T08:16:15.640Z,60.50
2023-04-08T08:18:43.766Z,60.28
2023-04-08T08:21:12.248Z,62.60
2023-04-08T08:23:40.577Z,63.40
2023-04-08T08:26:10.758Z,63.20
2023-04-08T08:28:40.760Z,69.63
2023-04-08T08:31:08.863Z,72.82
2023-04-08T08:33:37.208Z,75.03
2023-04-08T08:36:07.246Z,66.97
2023-04-08T08:38:37.496Z,76.03
2023-04-08T08:41:07.717Z,70.25
2023-04-08T08:43:39.496Z,71.95
2023-04-08T08:46:12.370Z,75.40
2023-04-08T08:48:42.668Z,73.22
2023-04-08T08:51:14.121Z,70.07
2023-04-08T08:53:45.761Z,73.90
2023-04-08T08:56:18.808Z,72.07
2023-04-08T08:58:49.358Z,70.07
2023-04-08T09:01:34.233Z,68.85
2023-04-08T09:04:11.984Z,67.80
2023-04-08T09:06:44.804Z,71.77
2023-04-08T09:09:15.755Z,75.68
2023-04-08T09:11:48.122Z,79.90
2023-04-08T09:14:25.018Z,76.82
2023-04-08T09:16:55.283Z,69.40
2023-04-08T09:19:25.457Z,71.47
2023-04-08T09:22:11.241Z,69.90
2023-04-08T09:24:41.355Z,71.78
2023-04-08T09:27:14.141Z,68.35
2023-04-08T09:29:44.498Z,72.90
2023-04-08T09:32:12.712Z,66.90
2023-04-08T09:34:41.429Z,68.82
2023-04-08T09:37:09.630Z,64.68
2023-04-08T09:39:38.614Z,67.10
2023-04-08T09:42:19.680Z,61.40
2023-04-08T09:44:49.194Z,52.42
2023-04-08T09:47:35.225Z,50.65
2023-04-08T09:50:09.498Z,53.42
2023-04-08T09:52:55.086Z,51.08
2023-04-08T09:55:32.747Z,44.00
2023-04-08T09:58:18.208Z,46.35
2023-04-08T10:00:54.228Z,41.08
2023-04-08T10:03:41.013Z,46.00
2023-04-08T10:06:13.152Z,42.60
2023-04-08T10:08:44.620Z,48.67
2023-04-08T10:11:17.259Z,45.35
2023-04-08T10:13:48.517Z,43.17
2023-04-08T10:16:27.756Z,42.85
2023-04-08T10:18:58.369Z,39.85
2023-04-08T10:21:40.466Z,37.58
2023-04-08T10:24:12.695Z,40.55
2023-04-08T10:26:45.934Z,37.17
2023-04-08T10:29:18.522Z,37.30
2023-04-08T10:31:51.639Z,37.58
2023-04-08T10:34:27.444Z,38.88
2023-04-08T10:36:59.675Z,35.00
2023-04-08T10:39:31.909Z,33.95
2023-04-08T10:42:02.917Z,39.28
2023-04-08T10:44:32.091Z,40.03
2023-04-08T10:47:02.039Z,34.72
2023-04-08T10:49:35.150Z,38.58
2023-04-08T10:52:09.431Z,42.08
2023-04-08T10:54:38.786Z,38.78
2023-04-08T10:57:08.017Z,39.38
2023-04-08T10:59:39.964Z,40.55
2023-04-08T11:02:15.481Z,35.75
2023-04-08T11:04:43.512Z,35.58
2023-04-08T11:07:14.573Z,34.90
2023-04-08T11:09:44.187Z,34.45
2023-04-08T11:12:20.169Z,33.15
2023-04-08T11:14:52.801Z,34.90
2023-04-08T11:17:20.164Z,28.17
2023-04-08T11:19:49.790Z,29.77
2023-04-08T11:22:20.762Z,28.25
2023-04-08T11:24:50.162Z,30.25
2023-04-08T11:27:21.281Z,29.40
2023-04-08T11:29:50.755Z,29.05
2023-04-08T11:32:21.243Z,28.40
2023-04-08T11:34:51.199Z,28.73
2023-04-08T11:37:22.582Z,25.48
2023-04-08T11:39:57.223Z,22.92
2023-04-08T11:42:33.894Z,26.80
2023-04-08T11:45:13.515Z,19.70
2023-04-08T11:47:47.460Z,22.85
2023-04-08T11:50:26.275Z,21.83
2023-04-08T11:52:57.240Z,24.73
2023-04-08T11:55:34.071Z,24.80
2023-04-08T11:58:06.944Z,25.52
2023-04-08T12:00:37.647Z,22.65
2023-04-08T12:03:06.669Z,16.42
2023-04-08T12:05:37.357Z,18.02
2023-04-08T12:08:07.523Z,18.45
2023-04-08T12:10:38.115Z,18.45
2023-04-08T12:13:08.706Z,18.13
2023-04-08T12:15:38.959Z,21.73
2023-04-08T12:18:09.130Z,20.23
2023-04-08T12:20:39.371Z,24.13
2023-04-08T12:23:09.487Z,22.85
2023-04-08T12:25:39.827Z,23.67
2023-04-08T12:28:11.668Z,22.02
2023-04-08T12:30:42.238Z,23.70
2023-04-08T12:33:12.371Z,22.70
2023-04-08T12:35:42.537Z,19.35
2023-04-08T12:38:13.027Z,18.23
2023-04-08T12:40:43.218Z,17.80
2023-04-08T12:43:13.312Z,16.00
2023-04-08T12:45:41.791Z,17.75
2023-04-08T12:48:10.799Z,17.90
2023-04-08T12:50:38.600Z,15.95
2023-04-08T12:53:07.197Z,18.25
2023-04-08T12:55:35.419Z,16.90
2023-04-08T12:58:03.870Z,17.60
2023-04-08T13:00:32.544Z,14.88
2023-04-08T13:03:00.973Z,15.85
2023-04-08T13:05:41.973Z,17.85
2023-04-08T13:08:13.308Z,15.15
2023-04-08T13:10:43.810Z,16.20
2023-04-08T13:13:14.457Z,15.30
2023-04-08T13:15:44.620Z,15.95
2023-04-08T13:18:14.981Z,15.07
2023-04-08T13:20:45.101Z,15.35
2023-04-08T13:23:18.051Z,14.60
2023-04-08T13:25:48.551Z,15.77
2023-04-08T13:28:18.825Z,14.43
2023-04-08T13:30:49.092Z,15.73
2023-04-08T13:33:19.639Z,15.15
2023-04-08T13:35:49.787Z,16.23
2023-04-08T13:38:19.976Z,13.20
2023-04-08T13:40:50.385Z,14.48
2023-04-08T13:43:20.870Z,14.07
2023-04-08T13:45:51.002Z,13.63
2023-04-08T13:48:21.621Z,17.05
2023-04-08T13:50:51.767Z,15.68
2023-04-08T13:53:21.862Z,14.50
2023-04-08T13:55:55.269Z,13.07
2023-04-08T13:58:26.767Z,15.50
2023-04-08T14:00:57.363Z,16.25
2023-04-08T14:03:28.289Z,15.27
2023-04-08T14:06:01.182Z,15.48
2023-04-08T14:08:32.039Z,16.40
2023-04-08T14:11:02.136Z,14.73
2023-04-08T14:13:32.625Z,15.32
2023-04-08T14:16:03.293Z,15.30
2023-04-08T14:18:33.494Z,15.43
2023-04-08T14:21:04.287Z,17.27
2023-04-08T14:23:34.516Z,14.07
2023-04-08T14:26:04.746Z,13.93
2023-04-08T14:28:34.869Z,14.68
2023-04-08T14:31:05.109Z,15.07
2023-04-08T14:33:35.337Z,16.13
2023-04-08T14:36:06.390Z,13.00
2023-04-08T14:38:37.199Z,16.92
2023-04-08T14:41:07.938Z,16.05
2023-04-08T14:43:38.038Z,15.25
2023-04-08T14:46:08.520Z,15.82
2023-04-08T14:48:38.703Z,16.30
2023-04-08T14:51:07.359Z,15.80
2023-04-08T14:53:35.604Z,18.55
2023-04-08T14:56:04.467Z,16.20
2023-04-08T14:58:32.373Z,18.35
2023-04-08T15:01:00.763Z,17.35
2023-04-08T15:03:29.267Z,16.42
2023-04-08T15:05:58.979Z,16.73
2023-04-08T15:08:29.037Z,16.23
2023-04-08T15:10:57.417Z,15.95
2023-04-08T15:13:25.815Z,15.05
2023-04-08T15:15:54.272Z,17.25
2023-04-08T15:18:22.743Z,15.85
2023-04-08T15:20:51.134Z,15.40
2023-04-08T15:23:19.531Z,14.63
2023-04-08T15:25:48.608Z,16.38
2023-04-08T15:28:16.468Z,14.05
2023-04-08T15:30:44.904Z,15.85
2023-04-08T15:33:13.491Z,15.55
2023-04-08T15:35:47.840Z,15.70
2023-04-08T15:38:18.567Z,15.57
2023-04-08T15:40:48.673Z,13.30
2023-04-08T15:43:18.874Z,16.13
2023-04-08T15:45:49.035Z,13.75
2023-04-08T15:48:19.241Z,14.85
2023-04-08T15:50:49.405Z,18.50
2023-04-08T15:53:19.593Z,14.43
2023-04-08T15:55:50.419Z,16.35
2023-04-08T15:58:20.666Z,16.40
2023-04-08T16:00:52.281Z,18.60
2023-04-08T16:03:22.604Z,16.77
2023-04-08T16:05:53.062Z,18.23
2023-04-08T16:08:21.316Z,18.17
2023-04-08T16:10:50.370Z,16.67
2023-04-08T16:13:18.137Z,18.25
2023-04-08T16:15:46.650Z,19.73
2023-04-08T16:18:15.080Z,18.35
2023-04-08T16:20:43.428Z,20.42
2023-04-08T16:23:15.565Z,21.52
2023-04-08T16:25:43.671Z,18.73
2023-04-08T16:28:12.344Z,20.40
2023-04-08T16:30:43.632Z,20.50
2023-04-08T16:33:14.333Z,24.23
2023-04-08T16:35:44.486Z,24.67
2023-04-08T16:38:15.631Z,26.40
2023-04-08T16:40:45.769Z,29.80
2023-04-08T16:43:16.191Z,27.77
2023-04-08T16:45:46.630Z,34.00
2023-04-08T16:48:16.854Z,30.70
2023-04-08T16:50:47.047Z,27.55
2023-04-08T16:53:17.189Z,29.15
2023-04-08T16:55:47.382Z,29.70
2023-04-08T16:58:17.610Z,33.42
2023-04-08T17:00:47.806Z,34.20
2023-04-08T17:03:18.152Z,31.88
2023-04-08T17:05:48.366Z,31.73
2023-04-08T17:08:19.122Z,33.10
2023-04-08T17:10:49.850Z,34.28
2023-04-08T17:13:19.978Z,33.70
2023-04-08T17:15:50.078Z,37.55
2023-04-08T17:18:20.193Z,42.53
2023-04-08T17:20:50.327Z,40.30
2023-04-08T17:23:20.591Z,43.47
2023-04-08T17:25:50.804Z,43.28
2023-04-08T17:28:22.228Z,39.78
2023-04-08T17:30:52.782Z,40.20
2023-04-08T17:33:22.951Z,35.50
2023-04-08T17:35:56.617Z,36.38
2023-04-08T17:38:26.944Z,40.40
2023-04-08T17:40:57.129Z,45.75
2023-04-08T17:43:27.548Z,39.00
2023-04-08T17:46:02.053Z,45.50
2023-04-08T17:48:32.328Z,43.50
2023-04-08T17:51:06.369Z,46.55
2023-04-08T17:53:36.778Z,48.38
2023-04-08T17:56:07.583Z,51.83
2023-04-08T17:58:37.856Z,56.15
2023-04-08T18:01:08.055Z,50.00
2023-04-08T18:03:38.838Z,46.58
2023-04-08T18:06:09.620Z,39.22
2023-04-08T18:08:39.812Z,39.42
2023-04-08T18:11:10.663Z,43.00
2023-04-08T18:13:40.861Z,41.65
2023-04-08T18:16:18.547Z,42.42
2023-04-08T18:18:49.497Z,47.70
2023-04-08T18:21:21.293Z,57.60
2023-04-08T18:23:50.599Z,45.88
2023-04-08T18:26:21.694Z,42.03
2023-04-08T18:28:51.825Z,40.88
2023-04-08T18:31:22.457Z,44.85
2023-04-08T18:33:52.935Z,41.38
2023-04-08T18:36:23.365Z,39.85
2023-04-08T18:38:53.564Z,40.08
2023-04-08T18:41:25.322Z,40.90
2023-04-08T18:43:55.902Z,38.72
2023-04-08T18:46:26.131Z,36.42
2023-04-08T18:48:56.488Z,38.80
2023-04-08T18:51:26.886Z,44.33
2023-04-08T18:53:57.183Z,53.38
2023-04-08T18:56:27.355Z,57.42
2023-04-08T18:58:55.811Z,48.83
2023-04-08T19:01:24.279Z,43.28
2023-04-08T19:03:53.294Z,46.30
2023-04-08T19:06:22.811Z,45.83
2023-04-08T19:08:52.402Z,43.85
2023-04-08T19:11:21.139Z,51.28
2023-04-08T19:13:49.504Z,45.42
2023-04-08T19:16:17.664Z,39.60
2023-04-08T19:18:46.072Z,41.53
2023-04-08T19:21:14.586Z,45.33
2023-04-08T19:23:42.951Z,43.63
2023-04-08T19:26:11.385Z,43.22
2023-04-08T19:28:39.715Z,42.80
2023-04-08T19:31:20.620Z,44.50
2023-04-08T19:33:51.120Z,48.45
2023-04-08T19:36:21.455Z,47.92
2023-04-08T19:38:51.591Z,47.22
2023-04-08T19:41:23.145Z,41.97
2023-04-08T19:43:53.433Z,45.78
2023-04-08T19:46:23.749Z,46.88
2023-04-08T19:48:56.325Z,43.20
2023-04-08T19:51:27.583Z,49.83
2023-04-08T19:53:58.056Z,46.22
2023-04-08T19:56:28.237Z,46.42
2023-04-08T19:58:58.590Z,40.45
2023-04-08T20:01:29.567Z,44.83
2023-04-08T20:03:59.818Z,40.17
2023-04-08T20:06:30.315Z,42.47
2023-04-08T20:09:05.700Z,41.67
2023-04-08T20:11:36.284Z,47.85
2023-04-08T20:14:06.438Z,44.00
2023-04-08T20:16:36.611Z,44.15
2023-04-08T20:19:06.772Z,44.15
2023-04-08T20:21:36.989Z,46.67
2023-04-08T20:24:07.456Z,42.53
2023-04-08T20:26:37.903Z,43.80
2023-04-08T20:29:08.389Z,43.53
2023-04-08T20:31:38.623Z,44.92
2023-04-08T20:34:09.703Z,43.10
2023-04-08T20:36:40.732Z,46.83
2023-04-08T20:39:30.202Z,48.10
2023-04-08T20:41:59.604Z,46.15
2023-04-08T20:44:29.177Z,48.78
2023-04-08T20:46:59.585Z,43.08
2023-04-08T20:49:29.792Z,47.45
2023-04-08T20:51:59.714Z,43.47
2023-04-08T20:54:31.357Z,43.53
2023-04-08T20:57:01.275Z,50.58
2023-04-08T20:59:30.784Z,47.10
2023-04-08T21:01:59.333Z,50.55
2023-04-08T21:04:28.145Z,49.60
2023-04-08T21:06:56.093Z,48.78
2023-04-08T21:09:24.493Z,49.90
2023-04-08T21:11:52.983Z,46.78
2023-04-08T21:14:21.494Z,46.13
2023-04-08T21:16:49.831Z,46.35
2023-04-08T21:19:18.245Z,45.00
2023-04-08T21:21:47.124Z,48.03
2023-04-08T21:24:15.169Z,51.38
2023-04-08T21:26:43.566Z,50.97
2023-04-08T21:29:12.440Z,49.88
2023-04-08T21:31:41.295Z,46.85
2023-04-08T21:34:08.726Z,50.45
2023-04-08T21:36:38.080Z,47.78
2023-04-08T21:39:08.356Z,49.10
2023-04-08T21:41:38.593Z,48.58
2023-04-08T21:44:09.449Z,49.38
2023-04-08T21:46:39.725Z,49.75
2023-04-08T21:49:11.565Z,45.53
2023-04-08T21:51:41.128Z,46.97
2023-04-08T21:54:11.303Z,47.92
2023-04-08T21:56:42.792Z,50.22
2023-04-08T21:59:13.101Z,49.78
2023-04-08T22:01:43.309Z,50.72
2023-04-08T22:04:13.594Z,52.53
2023-04-08T22:06:43.624Z,46.83
2023-04-08T22:09:14.029Z,49.67
2023-04-08T22:11:44.078Z,48.25
2023-04-08T22:14:15.685Z,51.45
2023-04-08T22:16:46.155Z,49.00
2023-04-08T22:19:15.696Z,48.95
2023-04-08T22:21:46.123Z,49.67
2023-04-08T22:24:16.382Z,54.50
2023-04-08T22:26:46.671Z,49.65
2023-04-08T22:29:17.563Z,51.90
2023-04-08T22:31:47.782Z,56.85
2023-04-08T22:34:18.034Z,54.55
2023-04-08T22:36:48.278Z,55.83
2023-04-08T22:39:18.456Z,57.45
2023-04-08T22:41:48.715Z,57.55
2023-04-08T22:44:18.953Z,59.90
2023-04-08T22:46:49.534Z,54.20
2023-04-08T22:49:19.730Z,51.42
2023-04-08T22:51:49.955Z,51.72
2023-04-08T22:54:20.199Z,53.67
2023-04-08T22:56:50.568Z,58.00
2023-04-08T22:59:20.917Z,54.35
2023-04-08T23:01:51.150Z,48.08
2023-04-08T23:04:21.364Z,51.15
2023-04-08T23:06:51.518Z,62.08
2023-04-08T23:09:23.813Z,57.63
2023-04-08T23:11:54.266Z,57.95
2023-04-08T23:14:24.633Z,63.90
2023-04-08T23:16:54.832Z,57.58
2023-04-08T23:19:25.103Z,57.60
2023-04-08T23:21:55.383Z,57.63
2023-04-08T23:24:25.677Z,62.53
2023-04-08T23:26:56.510Z,58.22
2023-04-08T23:29:26.843Z,61.20
2023-04-08T23:31:57.133Z,57.75
2023-04-08T23:34:27.347Z,59.55
2023-04-08T23:36:57.496Z,75.65
2023-04-08T23:39:27.673Z,73.03
2023-04-08T23:41:57.982Z,68.78
2023-04-08T23:44:28.513Z,68.95
2023-04-08T23:46:58.723Z,68.10
2023-04-08T23:49:28.943Z,69.55
2023-04-08T23:51:59.138Z,73.80
2023-04-08T23:54:33.931Z,75.45
2023-04-08T23:57:04.277Z,73.35
2023-04-08T23:59:34.511Z,69.43
